Terminal Aerodrome Forecast
Issued by NWS

Home | Current Version | Previous Version | Text Only | Print | Product List | Glossary On
Versions: 1 2 3 4 5 6 7 8 9 10 11 12 13 14 15 16 17 18
000
FTUS43 KGRR 042300 RRA
TAFLAN
TAF
KLAN 042348Z 0500/0524 26007KT P6SM BKN200
     FM050400 04006KT P6SM BKN050
     FM051200 08009KT 6SM -RA OVC080
     FM051800 09008KT 5SM BR OVC035=

USA.gov is the U.S. government's official web portal to all federal, state and local government web resources and services.